sensor_id;sensor_type;location;lat;lon;timestamp;P1;durP1;ratioP1;P2;durP2;ratioP2
2538;SDS011;1280;49.760;9.664;2023-04-24T00:00:17;6.30;;;1.60;;
2538;SDS011;1280;49.760;9.664;2023-04-24T00:02:58;5.23;;;1.80;;
2538;SDS011;1280;49.760;9.664;2023-04-24T00:05:38;4.50;;;1.30;;
2538;SDS011;1280;49.760;9.664;2023-04-24T00:08:14;4.43;;;1.63;;
2538;SDS011;1280;49.760;9.664;2023-04-24T00:10:47;6.10;;;1.50;;
2538;SDS011;1280;49.760;9.664;2023-04-24T00:13:25;8.20;;;1.60;;
2538;SDS011;1280;49.760;9.664;2023-04-24T00:16:07;3.67;;;1.50;;
2538;SDS011;1280;49.760;9.664;2023-04-24T00:18:37;5.07;;;2.03;;
2538;SDS011;1280;49.760;9.664;2023-04-24T00:21:21;5.70;;;1.67;;
2538;SDS011;1280;49.760;9.664;2023-04-24T00:23:55;9.20;;;1.60;;
2538;SDS011;1280;49.760;9.664;2023-04-24T00:26:28;6.43;;;1.73;;
2538;SDS011;1280;49.760;9.664;2023-04-24T00:28:59;4.70;;;1.90;;
2538;SDS011;1280;49.760;9.664;2023-04-24T00:31:39;5.00;;;1.90;;
2538;SDS011;1280;49.760;9.664;2023-04-24T00:34:08;4.60;;;1.50;;
2538;SDS011;1280;49.760;9.664;2023-04-24T00:36:53;4.07;;;1.70;;
2538;SDS011;1280;49.760;9.664;2023-04-24T00:39:29;4.07;;;1.20;;
2538;SDS011;1280;49.760;9.664;2023-04-24T00:41:58;3.93;;;1.60;;
2538;SDS011;1280;49.760;9.664;2023-04-24T00:44:37;5.23;;;1.90;;
2538;SDS011;1280;49.760;9.664;2023-04-24T00:47:07;3.80;;;1.37;;
2538;SDS011;1280;49.760;9.664;2023-04-24T00:49:47;3.50;;;1.40;;
2538;SDS011;1280;49.760;9.664;2023-04-24T00:52:27;4.23;;;1.30;;
2538;SDS011;1280;49.760;9.664;2023-04-24T00:55:01;3.53;;;1.23;;
2538;SDS011;1280;49.760;9.664;2023-04-24T00:57:38;3.50;;;1.60;;
2538;SDS011;1280;49.760;9.664;2023-04-24T01:00:12;3.50;;;1.10;;
2538;SDS011;1280;49.760;9.664;2023-04-24T01:02:54;4.13;;;1.27;;
2538;SDS011;1280;49.760;9.664;2023-04-24T01:05:35;4.27;;;1.23;;
2538;SDS011;1280;49.760;9.664;2023-04-24T01:08:11;5.53;;;1.73;;
2538;SDS011;1280;49.760;9.664;2023-04-24T01:10:40;5.70;;;1.30;;
2538;SDS011;1280;49.760;9.664;2023-04-24T01:13:13;4.57;;;1.30;;
2538;SDS011;1280;49.760;9.664;2023-04-24T01:15:45;4.07;;;1.37;;
2538;SDS011;1280;49.760;9.664;2023-04-24T01:18:19;3.93;;;1.30;;
2538;SDS011;1280;49.760;9.664;2023-04-24T01:20:59;5.53;;;1.53;;
2538;SDS011;1280;49.760;9.664;2023-04-24T01:23:41;4.33;;;1.40;;
2538;SDS011;1280;49.760;9.664;2023-04-24T01:26:17;4.60;;;1.40;;
2538;SDS011;1280;49.760;9.664;2023-04-24T01:28:53;4.20;;;1.30;;
2538;SDS011;1280;49.760;9.664;2023-04-24T01:31:29;4.23;;;1.33;;
2538;SDS011;1280;49.760;9.664;2023-04-24T01:34:05;3.13;;;1.20;;
2538;SDS011;1280;49.760;9.664;2023-04-24T01:36:48;5.30;;;1.60;;
2538;SDS011;1280;49.760;9.664;2023-04-24T01:39:38;4.37;;;1.40;;
2538;SDS011;1280;49.760;9.664;2023-04-24T01:42:13;3.93;;;1.23;;
2538;SDS011;1280;49.760;9.664;2023-04-24T01:44:45;5.20;;;1.20;;
2538;SDS011;1280;49.760;9.664;2023-04-24T01:47:15;6.40;;;1.40;;
2538;SDS011;1280;49.760;9.664;2023-04-24T01:49:44;5.87;;;1.30;;
2538;SDS011;1280;49.760;9.664;2023-04-24T01:52:17;4.33;;;1.33;;
2538;SDS011;1280;49.760;9.664;2023-04-24T01:54:53;7.43;;;1.30;;
2538;SDS011;1280;49.760;9.664;2023-04-24T01:57:33;5.73;;;1.70;;
2538;SDS011;1280;49.760;9.664;2023-04-24T02:00:10;4.07;;;1.00;;
2538;SDS011;1280;49.760;9.664;2023-04-24T02:02:45;4.40;;;1.13;;
2538;SDS011;1280;49.760;9.664;2023-04-24T02:05:17;5.40;;;1.40;;
2538;SDS011;1280;49.760;9.664;2023-04-24T02:07:49;4.10;;;1.30;;
2538;SDS011;1280;49.760;9.664;2023-04-24T02:10:34;4.57;;;1.00;;
2538;SDS011;1280;49.760;9.664;2023-04-24T02:13:13;3.73;;;1.30;;
2538;SDS011;1280;49.760;9.664;2023-04-24T02:15:57;3.40;;;1.20;;
2538;SDS011;1280;49.760;9.664;2023-04-24T02:18:33;3.97;;;1.20;;
2538;SDS011;1280;49.760;9.664;2023-04-24T02:21:15;5.80;;;1.60;;
2538;SDS011;1280;49.760;9.664;2023-04-24T02:23:55;4.83;;;1.40;;
2538;SDS011;1280;49.760;9.664;2023-04-24T02:26:39;4.17;;;1.10;;
2538;SDS011;1280;49.760;9.664;2023-04-24T02:29:12;5.30;;;1.20;;
2538;SDS011;1280;49.760;9.664;2023-04-24T02:31:51;3.83;;;1.37;;
2538;SDS011;1280;49.760;9.664;2023-04-24T02:34:21;4.00;;;1.10;;
2538;SDS011;1280;49.760;9.664;2023-04-24T02:36:55;3.90;;;1.37;;
2538;SDS011;1280;49.760;9.664;2023-04-24T02:39:33;5.93;;;1.13;;
2538;SDS011;1280;49.760;9.664;2023-04-24T02:42:09;4.57;;;1.70;;
2538;SDS011;1280;49.760;9.664;2023-04-24T02:44:47;4.23;;;1.40;;
2538;SDS011;1280;49.760;9.664;2023-04-24T02:47:26;3.63;;;1.30;;
2538;SDS011;1280;49.760;9.664;2023-04-24T02:50:01;4.77;;;1.20;;
2538;SDS011;1280;49.760;9.664;2023-04-24T02:52:36;3.80;;;1.23;;
2538;SDS011;1280;49.760;9.664;2023-04-24T02:55:11;7.83;;;1.30;;
2538;SDS011;1280;49.760;9.664;2023-04-24T02:58:01;5.73;;;1.20;;
2538;SDS011;1280;49.760;9.664;2023-04-24T03:00:36;4.43;;;1.93;;
2538;SDS011;1280;49.760;9.664;2023-04-24T03:03:11;4.90;;;1.40;;
2538;SDS011;1280;49.760;9.664;2023-04-24T03:05:49;4.83;;;1.10;;
2538;SDS011;1280;49.760;9.664;2023-04-24T03:08:21;4.63;;;1.50;;
2538;SDS011;1280;49.760;9.664;2023-04-24T03:10:55;5.00;;;1.50;;
2538;SDS011;1280;49.760;9.664;2023-04-24T03:13:31;7.60;;;1.30;;
2538;SDS011;1280;49.760;9.664;2023-04-24T03:16:02;4.03;;;1.20;;
2538;SDS011;1280;49.760;9.664;2023-04-24T03:18:41;5.53;;;1.27;;
2538;SDS011;1280;49.760;9.664;2023-04-24T03:21:19;6.80;;;1.80;;
2538;SDS011;1280;49.760;9.664;2023-04-24T03:23:56;5.57;;;1.60;;
2538;SDS011;1280;49.760;9.664;2023-04-24T03:26:35;5.10;;;1.20;;
2538;SDS011;1280;49.760;9.664;2023-04-24T03:29:40;6.63;;;1.40;;
2538;SDS011;1280;49.760;9.664;2023-04-24T03:32:26;4.50;;;1.27;;
2538;SDS011;1280;49.760;9.664;2023-04-24T03:35:10;4.07;;;1.33;;
2538;SDS011;1280;49.760;9.664;2023-04-24T03:37:47;6.03;;;1.63;;
2538;SDS011;1280;49.760;9.664;2023-04-24T03:40:35;5.00;;;1.37;;
2538;SDS011;1280;49.760;9.664;2023-04-24T03:43:17;5.20;;;1.37;;
2538;SDS011;1280;49.760;9.664;2023-04-24T03:46:00;9.27;;;1.40;;
2538;SDS011;1280;49.760;9.664;2023-04-24T03:48:35;4.50;;;1.40;;
2538;SDS011;1280;49.760;9.664;2023-04-24T03:51:10;6.30;;;1.40;;
2538;SDS011;1280;49.760;9.664;2023-04-24T03:53:46;4.47;;;1.70;;
2538;SDS011;1280;49.760;9.664;2023-04-24T03:56:19;5.03;;;1.40;;
2538;SDS011;1280;49.760;9.664;2023-04-24T03:58:55;3.70;;;1.10;;
2538;SDS011;1280;49.760;9.664;2023-04-24T04:01:28;4.87;;;1.40;;
2538;SDS011;1280;49.760;9.664;2023-04-24T04:04:07;7.90;;;1.07;;
2538;SDS011;1280;49.760;9.664;2023-04-24T04:06:47;7.57;;;1.70;;
2538;SDS011;1280;49.760;9.664;2023-04-24T04:09:18;4.80;;;1.10;;
2538;SDS011;1280;49.760;9.664;2023-04-24T04:11:52;5.30;;;1.30;;
2538;SDS011;1280;49.760;9.664;2023-04-24T04:14:33;3.73;;;1.20;;
2538;SDS011;1280;49.760;9.664;2023-04-24T04:17:28;6.03;;;1.33;;
2538;SDS011;1280;49.760;9.664;2023-04-24T04:20:07;5.23;;;1.23;;
2538;SDS011;1280;49.760;9.664;2023-04-24T04:22:40;3.83;;;1.13;;
2538;SDS011;1280;49.760;9.664;2023-04-24T04:25:15;4.30;;;1.13;;
2538;SDS011;1280;49.760;9.664;2023-04-24T04:27:47;4.40;;;1.27;;
2538;SDS011;1280;49.760;9.664;2023-04-24T04:30:19;5.10;;;1.40;;
2538;SDS011;1280;49.760;9.664;2023-04-24T04:33:06;4.30;;;1.83;;
2538;SDS011;1280;49.760;9.664;2023-04-24T04:35:40;6.53;;;1.67;;
2538;SDS011;1280;49.760;9.664;2023-04-24T04:38:13;5.20;;;1.40;;
2538;SDS011;1280;49.760;9.664;2023-04-24T04:40:49;5.30;;;1.30;;
2538;SDS011;1280;49.760;9.664;2023-04-24T04:43:30;5.80;;;1.60;;
2538;SDS011;1280;49.760;9.664;2023-04-24T04:46:09;6.40;;;1.37;;
2538;SDS011;1280;49.760;9.664;2023-04-24T04:49:02;5.93;;;1.90;;
2538;SDS011;1280;49.760;9.664;2023-04-24T04:51:40;4.97;;;1.87;;
2538;SDS011;1280;49.760;9.664;2023-04-24T04:54:14;3.67;;;1.67;;
2538;SDS011;1280;49.760;9.664;2023-04-24T04:56:51;7.77;;;1.90;;
2538;SDS011;1280;49.760;9.664;2023-04-24T04:59:23;4.33;;;1.90;;
2538;SDS011;1280;49.760;9.664;2023-04-24T05:02:07;5.40;;;2.00;;
2538;SDS011;1280;49.760;9.664;2023-04-24T05:04:59;4.40;;;1.37;;
2538;SDS011;1280;49.760;9.664;2023-04-24T05:07:33;4.07;;;1.77;;
2538;SDS011;1280;49.760;9.664;2023-04-24T05:10:14;5.00;;;1.70;;
2538;SDS011;1280;49.760;9.664;2023-04-24T05:12:48;3.43;;;1.30;;
2538;SDS011;1280;49.760;9.664;2023-04-24T05:15:23;4.37;;;1.67;;
2538;SDS011;1280;49.760;9.664;2023-04-24T05:17:57;3.97;;;1.53;;
2538;SDS011;1280;49.760;9.664;2023-04-24T05:20:39;5.27;;;1.53;;
2538;SDS011;1280;49.760;9.664;2023-04-24T05:23:18;4.50;;;1.80;;
2538;SDS011;1280;49.760;9.664;2023-04-24T05:26:01;4.80;;;1.70;;
2538;SDS011;1280;49.760;9.664;2023-04-24T05:28:38;5.00;;;1.60;;
2538;SDS011;1280;49.760;9.664;2023-04-24T05:31:16;4.00;;;1.77;;
2538;SDS011;1280;49.760;9.664;2023-04-24T05:33:51;4.53;;;2.23;;
2538;SDS011;1280;49.760;9.664;2023-04-24T05:36:30;4.17;;;1.67;;
2538;SDS011;1280;49.760;9.664;2023-04-24T05:39:02;7.80;;;2.53;;
2538;SDS011;1280;49.760;9.664;2023-04-24T05:41:34;6.23;;;1.97;;
2538;SDS011;1280;49.760;9.664;2023-04-24T05:44:08;7.23;;;1.83;;
2538;SDS011;1280;49.760;9.664;2023-04-24T05:46:47;6.33;;;2.00;;
2538;SDS011;1280;49.760;9.664;2023-04-24T05:49:18;4.80;;;2.13;;
2538;SDS011;1280;49.760;9.664;2023-04-24T05:52:00;5.23;;;1.73;;
2538;SDS011;1280;49.760;9.664;2023-04-24T05:54:39;4.07;;;1.83;;
2538;SDS011;1280;49.760;9.664;2023-04-24T05:57:13;4.10;;;1.90;;
2538;SDS011;1280;49.760;9.664;2023-04-24T05:59:52;4.57;;;1.77;;
2538;SDS011;1280;49.760;9.664;2023-04-24T06:02:24;3.93;;;1.73;;
2538;SDS011;1280;49.760;9.664;2023-04-24T06:04:54;4.23;;;1.90;;
2538;SDS011;1280;49.760;9.664;2023-04-24T06:07:28;5.23;;;1.70;;
2538;SDS011;1280;49.760;9.664;2023-04-24T06:09:59;6.97;;;2.33;;
2538;SDS011;1280;49.760;9.664;2023-04-24T06:12:42;4.60;;;2.00;;
2538;SDS011;1280;49.760;9.664;2023-04-24T06:15:17;4.03;;;1.87;;
2538;SDS011;1280;49.760;9.664;2023-04-24T06:18:05;5.03;;;2.60;;
2538;SDS011;1280;49.760;9.664;2023-04-24T06:20:37;5.33;;;2.00;;
2538;SDS011;1280;49.760;9.664;2023-04-24T06:23:13;4.10;;;2.07;;
2538;SDS011;1280;49.760;9.664;2023-04-24T06:25:42;4.83;;;2.10;;
2538;SDS011;1280;49.760;9.664;2023-04-24T06:28:11;7.90;;;2.70;;
2538;SDS011;1280;49.760;9.664;2023-04-24T06:30:42;7.70;;;2.47;;
2538;SDS011;1280;49.760;9.664;2023-04-24T06:33:12;5.50;;;2.40;;
2538;SDS011;1280;49.760;9.664;2023-04-24T06:35:48;5.27;;;2.20;;
2538;SDS011;1280;49.760;9.664;2023-04-24T06:38:26;5.03;;;2.43;;
2538;SDS011;1280;49.760;9.664;2023-04-24T06:41:00;4.70;;;2.40;;
2538;SDS011;1280;49.760;9.664;2023-04-24T06:43:38;6.10;;;2.70;;
2538;SDS011;1280;49.760;9.664;2023-04-24T06:46:07;5.17;;;2.50;;
2538;SDS011;1280;49.760;9.664;2023-04-24T06:48:39;6.47;;;2.43;;
2538;SDS011;1280;49.760;9.664;2023-04-24T06:51:10;6.60;;;2.67;;
2538;SDS011;1280;49.760;9.664;2023-04-24T06:53:42;5.03;;;2.80;;
2538;SDS011;1280;49.760;9.664;2023-04-24T06:56:15;5.63;;;2.40;;
2538;SDS011;1280;49.760;9.664;2023-04-24T06:58:45;6.87;;;3.00;;
2538;SDS011;1280;49.760;9.664;2023-04-24T07:01:16;5.00;;;2.97;;
2538;SDS011;1280;49.760;9.664;2023-04-24T07:03:47;4.63;;;2.40;;
2538;SDS011;1280;49.760;9.664;2023-04-24T07:06:25;5.77;;;2.40;;
2538;SDS011;1280;49.760;9.664;2023-04-24T07:09:01;5.70;;;2.87;;
2538;SDS011;1280;49.760;9.664;2023-04-24T07:11:33;6.60;;;2.90;;
2538;SDS011;1280;49.760;9.664;2023-04-24T07:14:04;8.93;;;3.07;;
2538;SDS011;1280;49.760;9.664;2023-04-24T07:16:36;5.37;;;2.80;;
2538;SDS011;1280;49.760;9.664;2023-04-24T07:19:08;7.47;;;3.23;;
2538;SDS011;1280;49.760;9.664;2023-04-24T07:21:38;6.33;;;3.20;;
2538;SDS011;1280;49.760;9.664;2023-04-24T07:24:18;8.00;;;2.93;;
2538;SDS011;1280;49.760;9.664;2023-04-24T07:26:51;5.47;;;3.23;;
2538;SDS011;1280;49.760;9.664;2023-04-24T07:29:20;5.60;;;2.77;;
2538;SDS011;1280;49.760;9.664;2023-04-24T07:31:52;5.60;;;3.07;;
2538;SDS011;1280;49.760;9.664;2023-04-24T07:34:31;4.93;;;2.90;;
2538;SDS011;1280;49.760;9.664;2023-04-24T07:37:06;5.37;;;3.20;;
2538;SDS011;1280;49.760;9.664;2023-04-24T07:39:35;5.77;;;3.30;;
2538;SDS011;1280;49.760;9.664;2023-04-24T07:42:10;8.67;;;3.07;;
2538;SDS011;1280;49.760;9.664;2023-04-24T07:44:42;6.07;;;3.50;;
2538;SDS011;1280;49.760;9.664;2023-04-24T07:47:15;6.57;;;3.50;;
2538;SDS011;1280;49.760;9.664;2023-04-24T07:49:49;6.13;;;3.60;;
2538;SDS011;1280;49.760;9.664;2023-04-24T07:52:24;6.10;;;3.03;;
2538;SDS011;1280;49.760;9.664;2023-04-24T07:54:56;7.50;;;3.47;;
2538;SDS011;1280;49.760;9.664;2023-04-24T07:57:34;5.90;;;2.80;;
2538;SDS011;1280;49.760;9.664;2023-04-24T08:00:04;6.30;;;3.10;;
2538;SDS011;1280;49.760;9.664;2023-04-24T08:02:37;6.10;;;3.40;;
2538;SDS011;1280;49.760;9.664;2023-04-24T08:05:12;6.00;;;4.07;;
2538;SDS011;1280;49.760;9.664;2023-04-24T08:07:43;7.40;;;3.40;;
2538;SDS011;1280;49.760;9.664;2023-04-24T08:10:18;6.40;;;3.43;;
2538;SDS011;1280;49.760;9.664;2023-04-24T08:12:48;5.53;;;3.33;;
2538;SDS011;1280;49.760;9.664;2023-04-24T08:15:27;7.60;;;3.43;;
2538;SDS011;1280;49.760;9.664;2023-04-24T08:17:57;7.57;;;3.57;;
2538;SDS011;1280;49.760;9.664;2023-04-24T08:20:29;5.90;;;3.23;;
2538;SDS011;1280;49.760;9.664;2023-04-24T08:23:05;12.43;;;3.10;;
2538;SDS011;1280;49.760;9.664;2023-04-24T08:25:35;7.73;;;3.30;;
2538;SDS011;1280;49.760;9.664;2023-04-24T08:28:09;9.33;;;3.13;;
2538;SDS011;1280;49.760;9.664;2023-04-24T08:30:42;5.20;;;2.80;;
2538;SDS011;1280;49.760;9.664;2023-04-24T08:33:14;7.47;;;2.60;;
2538;SDS011;1280;49.760;9.664;2023-04-24T08:35:56;4.97;;;2.87;;
2538;SDS011;1280;49.760;9.664;2023-04-24T08:38:24;5.30;;;2.80;;
2538;SDS011;1280;49.760;9.664;2023-04-24T08:41:06;4.33;;;2.40;;
2538;SDS011;1280;49.760;9.664;2023-04-24T08:43:39;5.63;;;2.10;;
2538;SDS011;1280;49.760;9.664;2023-04-24T08:46:11;4.17;;;2.23;;
2538;SDS011;1280;49.760;9.664;2023-04-24T08:48:44;4.47;;;2.00;;
2538;SDS011;1280;49.760;9.664;2023-04-24T08:51:16;5.07;;;2.50;;
2538;SDS011;1280;49.760;9.664;2023-04-24T08:53:49;5.63;;;2.27;;
2538;SDS011;1280;49.760;9.664;2023-04-24T08:56:26;4.97;;;1.83;;
2538;SDS011;1280;49.760;9.664;2023-04-24T08:58:57;4.57;;;1.93;;
2538;SDS011;1280;49.760;9.664;2023-04-24T09:01:37;4.20;;;2.10;;
2538;SDS011;1280;49.760;9.664;2023-04-24T09:04:08;4.37;;;1.90;;
2538;SDS011;1280;49.760;9.664;2023-04-24T09:06:47;5.93;;;2.03;;
2538;SDS011;1280;49.760;9.664;2023-04-24T09:09:21;5.63;;;1.97;;
2538;SDS011;1280;49.760;9.664;2023-04-24T09:12:00;4.90;;;2.30;;
2538;SDS011;1280;49.760;9.664;2023-04-24T09:14:31;7.43;;;1.90;;
2538;SDS011;1280;49.760;9.664;2023-04-24T09:17:13;5.40;;;2.20;;
2538;SDS011;1280;49.760;9.664;2023-04-24T09:19:41;4.10;;;1.90;;
2538;SDS011;1280;49.760;9.664;2023-04-24T09:22:20;22.43;;;2.30;;
2538;SDS011;1280;49.760;9.664;2023-04-24T09:24:59;4.07;;;1.90;;
2538;SDS011;1280;49.760;9.664;2023-04-24T09:27:38;3.93;;;1.90;;
2538;SDS011;1280;49.760;9.664;2023-04-24T09:30:13;5.50;;;1.83;;
2538;SDS011;1280;49.760;9.664;2023-04-24T09:32:45;4.37;;;2.00;;
2538;SDS011;1280;49.760;9.664;2023-04-24T09:35:25;10.00;;;1.83;;
2538;SDS011;1280;49.760;9.664;2023-04-24T09:37:56;4.80;;;2.37;;
2538;SDS011;1280;49.760;9.664;2023-04-24T09:40:26;4.97;;;2.20;;
2538;SDS011;1280;49.760;9.664;2023-04-24T09:43:01;5.73;;;2.13;;
2538;SDS011;1280;49.760;9.664;2023-04-24T09:45:37;4.80;;;2.30;;
2538;SDS011;1280;49.760;9.664;2023-04-24T09:48:08;4.80;;;1.90;;
2538;SDS011;1280;49.760;9.664;2023-04-24T09:50:38;4.00;;;1.80;;
2538;SDS011;1280;49.760;9.664;2023-04-24T09:53:17;4.60;;;2.00;;
2538;SDS011;1280;49.760;9.664;2023-04-24T09:55:53;4.43;;;2.03;;
2538;SDS011;1280;49.760;9.664;2023-04-24T09:58:28;5.37;;;2.10;;
2538;SDS011;1280;49.760;9.664;2023-04-24T10:00:57;4.93;;;2.30;;
2538;SDS011;1280;49.760;9.664;2023-04-24T10:03:29;6.00;;;2.53;;
2538;SDS011;1280;49.760;9.664;2023-04-24T10:06:07;6.20;;;2.50;;
2538;SDS011;1280;49.760;9.664;2023-04-24T10:08:42;5.60;;;2.80;;
2538;SDS011;1280;49.760;9.664;2023-04-24T10:11:17;4.73;;;2.60;;
2538;SDS011;1280;49.760;9.664;2023-04-24T10:13:57;8.20;;;2.50;;
2538;SDS011;1280;49.760;9.664;2023-04-24T10:16:34;7.10;;;2.90;;
2538;SDS011;1280;49.760;9.664;2023-04-24T10:19:10;5.47;;;2.63;;
2538;SDS011;1280;49.760;9.664;2023-04-24T10:21:43;6.27;;;3.30;;
2538;SDS011;1280;49.760;9.664;2023-04-24T10:24:13;6.30;;;2.60;;
2538;SDS011;1280;49.760;9.664;2023-04-24T10:26:46;5.13;;;2.70;;
2538;SDS011;1280;49.760;9.664;2023-04-24T10:29:24;7.00;;;3.60;;
2538;SDS011;1280;49.760;9.664;2023-04-24T10:31:56;5.23;;;2.83;;
2538;SDS011;1280;49.760;9.664;2023-04-24T10:34:25;7.90;;;3.20;;
2538;SDS011;1280;49.760;9.664;2023-04-24T10:36:55;5.40;;;2.73;;
2538;SDS011;1280;49.760;9.664;2023-04-24T10:39:32;4.80;;;2.57;;
2538;SDS011;1280;49.760;9.664;2023-04-24T10:42:13;4.67;;;2.43;;
2538;SDS011;1280;49.760;9.664;2023-04-24T10:44:48;12.33;;;3.10;;
2538;SDS011;1280;49.760;9.664;2023-04-24T10:47:21;7.17;;;2.67;;
2538;SDS011;1280;49.760;9.664;2023-04-24T10:49:51;4.83;;;2.50;;
2538;SDS011;1280;49.760;9.664;2023-04-24T10:52:26;5.20;;;3.43;;
2538;SDS011;1280;49.760;9.664;2023-04-24T10:58:15;5.60;;;2.90;;
2538;SDS011;1280;49.760;9.664;2023-04-24T11:00:59;8.13;;;3.23;;
2538;SDS011;1280;49.760;9.664;2023-04-24T11:03:35;6.70;;;3.77;;
2538;SDS011;1280;49.760;9.664;2023-04-24T11:06:05;5.30;;;3.03;;
2538;SDS011;1280;49.760;9.664;2023-04-24T11:08:45;5.47;;;2.50;;
2538;SDS011;1280;49.760;9.664;2023-04-24T11:11:17;5.30;;;2.43;;
2538;SDS011;1280;49.760;9.664;2023-04-24T11:14:04;5.67;;;2.53;;
2538;SDS011;1280;49.760;9.664;2023-04-24T11:16:51;5.23;;;2.40;;
2538;SDS011;1280;49.760;9.664;2023-04-24T11:19:26;7.53;;;2.60;;
2538;SDS011;1280;49.760;9.664;2023-04-24T11:21:58;4.90;;;2.50;;
2538;SDS011;1280;49.760;9.664;2023-04-24T11:24:38;6.80;;;2.47;;
2538;SDS011;1280;49.760;9.664;2023-04-24T11:27:29;5.80;;;2.73;;
2538;SDS011;1280;49.760;9.664;2023-04-24T11:30:03;5.20;;;2.20;;
2538;SDS011;1280;49.760;9.664;2023-04-24T11:32:37;4.40;;;1.53;;
2538;SDS011;1280;49.760;9.664;2023-04-24T11:35:07;5.80;;;2.33;;
2538;SDS011;1280;49.760;9.664;2023-04-24T11:37:43;4.13;;;1.87;;
2538;SDS011;1280;49.760;9.664;2023-04-24T11:40:19;10.23;;;3.27;;
2538;SDS011;1280;49.760;9.664;2023-04-24T11:42:54;7.50;;;2.10;;
2538;SDS011;1280;49.760;9.664;2023-04-24T11:45:34;4.00;;;1.90;;
2538;SDS011;1280;49.760;9.664;2023-04-24T11:48:10;4.77;;;2.50;;
2538;SDS011;1280;49.760;9.664;2023-04-24T11:50:39;8.83;;;2.47;;
2538;SDS011;1280;49.760;9.664;2023-04-24T11:53:24;5.33;;;2.20;;
2538;SDS011;1280;49.760;9.664;2023-04-24T11:55:54;6.00;;;2.40;;
2538;SDS011;1280;49.760;9.664;2023-04-24T11:58:25;5.57;;;2.40;;
2538;SDS011;1280;49.760;9.664;2023-04-24T12:00:59;5.07;;;2.17;;
2538;SDS011;1280;49.760;9.664;2023-04-24T12:03:37;4.70;;;2.10;;
2538;SDS011;1280;49.760;9.664;2023-04-24T12:06:13;7.70;;;2.10;;
2538;SDS011;1280;49.760;9.664;2023-04-24T12:08:46;4.53;;;2.17;;
2538;SDS011;1280;49.760;9.664;2023-04-24T12:11:18;4.70;;;2.07;;
2538;SDS011;1280;49.760;9.664;2023-04-24T12:13:47;5.23;;;2.30;;
2538;SDS011;1280;49.760;9.664;2023-04-24T12:16:17;4.23;;;2.17;;
2538;SDS011;1280;49.760;9.664;2023-04-24T12:18:51;5.70;;;2.07;;
2538;SDS011;1280;49.760;9.664;2023-04-24T12:21:28;4.37;;;1.80;;
2538;SDS011;1280;49.760;9.664;2023-04-24T12:24:00;4.00;;;2.00;;
2538;SDS011;1280;49.760;9.664;2023-04-24T12:26:35;4.00;;;2.07;;
2538;SDS011;1280;49.760;9.664;2023-04-24T12:29:03;7.20;;;2.30;;
2538;SDS011;1280;49.760;9.664;2023-04-24T12:31:32;4.30;;;1.80;;
2538;SDS011;1280;49.760;9.664;2023-04-24T12:34:18;4.80;;;2.50;;
2538;SDS011;1280;49.760;9.664;2023-04-24T12:36:51;5.43;;;2.27;;
2538;SDS011;1280;49.760;9.664;2023-04-24T12:39:22;3.90;;;1.83;;
2538;SDS011;1280;49.760;9.664;2023-04-24T12:41:54;4.53;;;1.90;;
2538;SDS011;1280;49.760;9.664;2023-04-24T12:44:30;4.60;;;2.37;;
2538;SDS011;1280;49.760;9.664;2023-04-24T12:47:00;9.40;;;2.50;;
2538;SDS011;1280;49.760;9.664;2023-04-24T12:49:36;5.50;;;2.17;;
2538;SDS011;1280;49.760;9.664;2023-04-24T12:52:04;4.30;;;2.10;;
2538;SDS011;1280;49.760;9.664;2023-04-24T12:54:42;7.67;;;2.63;;
2538;SDS011;1280;49.760;9.664;2023-04-24T12:57:13;8.63;;;2.63;;
2538;SDS011;1280;49.760;9.664;2023-04-24T12:59:41;5.60;;;2.57;;
2538;SDS011;1280;49.760;9.664;2023-04-24T13:02:16;5.70;;;2.90;;
2538;SDS011;1280;49.760;9.664;2023-04-24T13:04:56;5.03;;;2.37;;
2538;SDS011;1280;49.760;9.664;2023-04-24T13:07:26;5.30;;;2.57;;
2538;SDS011;1280;49.760;9.664;2023-04-24T13:09:55;9.40;;;3.27;;
2538;SDS011;1280;49.760;9.664;2023-04-24T13:12:28;5.70;;;3.17;;
2538;SDS011;1280;49.760;9.664;2023-04-24T13:15:02;4.93;;;2.57;;
2538;SDS011;1280;49.760;9.664;2023-04-24T13:17:38;7.50;;;3.20;;
2538;SDS011;1280;49.760;9.664;2023-04-24T13:20:11;6.57;;;3.17;;
2538;SDS011;1280;49.760;9.664;2023-04-24T13:22:42;5.47;;;3.13;;
2538;SDS011;1280;49.760;9.664;2023-04-24T13:25:12;4.90;;;2.80;;
2538;SDS011;1280;49.760;9.664;2023-04-24T13:27:47;5.30;;;2.93;;
2538;SDS011;1280;49.760;9.664;2023-04-24T13:30:19;5.10;;;3.00;;
2538;SDS011;1280;49.760;9.664;2023-04-24T13:32:55;6.57;;;2.93;;
2538;SDS011;1280;49.760;9.664;2023-04-24T13:35:30;6.30;;;3.00;;
2538;SDS011;1280;49.760;9.664;2023-04-24T13:38:02;5.83;;;3.50;;
2538;SDS011;1280;49.760;9.664;2023-04-24T13:40:42;9.50;;;3.40;;
2538;SDS011;1280;49.760;9.664;2023-04-24T13:43:15;5.30;;;3.23;;
2538;SDS011;1280;49.760;9.664;2023-04-24T13:45:48;5.50;;;2.90;;
2538;SDS011;1280;49.760;9.664;2023-04-24T13:48:23;6.87;;;3.03;;
2538;SDS011;1280;49.760;9.664;2023-04-24T13:51:02;6.33;;;3.33;;
2538;SDS011;1280;49.760;9.664;2023-04-24T13:53:34;5.47;;;2.87;;
2538;SDS011;1280;49.760;9.664;2023-04-24T13:56:08;6.87;;;3.20;;
2538;SDS011;1280;49.760;9.664;2023-04-24T13:58:41;6.90;;;3.27;;
2538;SDS011;1280;49.760;9.664;2023-04-24T14:01:22;6.53;;;2.87;;
2538;SDS011;1280;49.760;9.664;2023-04-24T14:03:56;5.53;;;3.10;;
2538;SDS011;1280;49.760;9.664;2023-04-24T14:06:35;7.20;;;3.87;;
2538;SDS011;1280;49.760;9.664;2023-04-24T14:09:05;6.57;;;3.90;;
2538;SDS011;1280;49.760;9.664;2023-04-24T14:11:34;6.90;;;4.27;;
2538;SDS011;1280;49.760;9.664;2023-04-24T14:14:12;6.20;;;3.57;;
2538;SDS011;1280;49.760;9.664;2023-04-24T14:16:44;5.93;;;4.00;;
2538;SDS011;1280;49.760;9.664;2023-04-24T14:19:17;7.53;;;4.43;;
2538;SDS011;1280;49.760;9.664;2023-04-24T14:21:54;7.77;;;5.03;;
2538;SDS011;1280;49.760;9.664;2023-04-24T14:24:28;7.93;;;4.90;;
2538;SDS011;1280;49.760;9.664;2023-04-24T14:26:58;7.80;;;4.70;;
2538;SDS011;1280;49.760;9.664;2023-04-24T14:29:37;7.23;;;4.70;;
2538;SDS011;1280;49.760;9.664;2023-04-24T14:32:09;6.97;;;4.60;;
2538;SDS011;1280;49.760;9.664;2023-04-24T14:34:40;8.40;;;4.73;;
2538;SDS011;1280;49.760;9.664;2023-04-24T14:37:17;9.17;;;4.50;;
2538;SDS011;1280;49.760;9.664;2023-04-24T14:39:47;8.33;;;4.30;;
2538;SDS011;1280;49.760;9.664;2023-04-24T14:42:50;6.63;;;4.30;;
2538;SDS011;1280;49.760;9.664;2023-04-24T14:45:19;7.20;;;3.87;;
2538;SDS011;1280;49.760;9.664;2023-04-24T14:47:50;9.17;;;4.20;;
2538;SDS011;1280;49.760;9.664;2023-04-24T14:50:19;6.20;;;4.13;;
2538;SDS011;1280;49.760;9.664;2023-04-24T14:53:02;8.90;;;3.77;;
2538;SDS011;1280;49.760;9.664;2023-04-24T14:55:37;9.73;;;4.00;;
2538;SDS011;1280;49.760;9.664;2023-04-24T14:58:10;6.83;;;4.37;;
2538;SDS011;1280;49.760;9.664;2023-04-24T15:00:43;9.33;;;4.30;;
2538;SDS011;1280;49.760;9.664;2023-04-24T15:03:18;6.93;;;4.00;;
2538;SDS011;1280;49.760;9.664;2023-04-24T15:05:48;8.17;;;3.60;;
2538;SDS011;1280;49.760;9.664;2023-04-24T15:08:27;10.83;;;4.07;;
2538;SDS011;1280;49.760;9.664;2023-04-24T15:13:50;9.03;;;3.80;;
2538;SDS011;1280;49.760;9.664;2023-04-24T15:16:26;7.60;;;3.60;;
2538;SDS011;1280;49.760;9.664;2023-04-24T15:19:02;7.00;;;3.80;;
2538;SDS011;1280;49.760;9.664;2023-04-24T15:21:35;16.73;;;4.17;;
2538;SDS011;1280;49.760;9.664;2023-04-24T15:24:10;7.00;;;3.87;;
2538;SDS011;1280;49.760;9.664;2023-04-24T15:26:44;10.83;;;4.43;;
2538;SDS011;1280;49.760;9.664;2023-04-24T15:29:13;6.47;;;3.57;;
2538;SDS011;1280;49.760;9.664;2023-04-24T15:31:42;6.90;;;3.63;;
2538;SDS011;1280;49.760;9.664;2023-04-24T15:34:15;6.47;;;3.80;;
2538;SDS011;1280;49.760;9.664;2023-04-24T15:36:52;6.13;;;3.60;;
2538;SDS011;1280;49.760;9.664;2023-04-24T15:39:24;7.93;;;3.87;;
2538;SDS011;1280;49.760;9.664;2023-04-24T15:41:59;6.43;;;3.73;;
2538;SDS011;1280;49.760;9.664;2023-04-24T15:44:32;6.13;;;3.50;;
2538;SDS011;1280;49.760;9.664;2023-04-24T15:47:04;6.70;;;3.23;;
2538;SDS011;1280;49.760;9.664;2023-04-24T15:49:46;8.07;;;4.07;;
2538;SDS011;1280;49.760;9.664;2023-04-24T15:52:20;8.00;;;4.27;;
2538;SDS011;1280;49.760;9.664;2023-04-24T15:55:00;6.50;;;3.80;;
2538;SDS011;1280;49.760;9.664;2023-04-24T15:57:33;5.67;;;3.80;;
2538;SDS011;1280;49.760;9.664;2023-04-24T16:00:06;7.53;;;4.47;;
2538;SDS011;1280;49.760;9.664;2023-04-24T16:02:37;7.40;;;4.80;;
2538;SDS011;1280;49.760;9.664;2023-04-24T16:05:09;8.00;;;4.70;;
2538;SDS011;1280;49.760;9.664;2023-04-24T16:07:42;8.77;;;4.10;;
2538;SDS011;1280;49.760;9.664;2023-04-24T16:10:19;9.80;;;4.17;;